Aérodrome :
LOGIN :

S'inscrire | Disclaimer

   EN    FR    IT 

 










Légende :    VFR   VFR Marginal   IFR   IFR Intensif   IFR Très Intensif
Visi : 
Plafond : 
>= 8 km
>= 3000ft
5 à 8 km
1000 à 3000 ft
1500m à 5 km
500 à 1000 ft
800 à 1500m
200 à 500 ft
< 800m
< 200 ft
Symboles :   Orages  Brouillard  Fortes neiges  Fortes précipitations  Vent > 20 kt
SIGMETs :   Divers  Orages  Givrage  Turbulence  Onde Orograph.  Cendres Volcan.







- Altitude de l'aérodrome : 598 ft
- Code IATA : BQH
- Voir les cartes d'approche


EGKB - Biggin Hill

DERNIER METAR :
  • 240920Z VRB03KT CAVOK 20/13 Q1026

METARs EXPIRÉS :
  • 240850Z VRB03KT CAVOK 19/12 Q1026
  • 240820Z 03005KT 330V060 CAVOK 19/13 Q1026
  • 240750Z 33004KT 290V010 CAVOK 18/13 Q1026
  • 240720Z VRB03KT CAVOK 18/13 Q1026
  • 240650Z VRB03KT CAVOK 17/13 Q1026

TAF TAF EGKB
Valide du 24 à 09h jusqu'au 24 à 18h UTC


240804Z 2409/2418 30006KT 9999 FEW045
Pas de NOTAMs connus pour ce terrain.



MET'MAP, la Météo Aéronautique d'un coup d'oeil ! - Copyright ORBIFLY Décembre 2007 - Disclaimer

ORBIFLY MET'MAP TEAM :

Programmation & Développement : Alexandra Zaïnal
Conception & Développement : Baudouin d'Aumeries
Co-Programmation & Développement : Marc-Olivier Méhu
Soutien technique & logistique : Manuel Goepfert

Contact : metmap@orbifly.com




SOURCES & CREDITS :

   NOAA